Time;durP1;ratioP1;P1;durP2;ratioP2;P2;SDS_P1;SDS_P2;PMS_P1;PMS_P2;Temp;Humidity;BMP_temperature;BMP_pressure;BME280_temperature;BME280_humidity;BME280_pressure;Samples;Min_cycle;Max_cycle;Signal;HPM_P1;HPM_P2
2023/07/27 00:00:25;;;;;;;;;;;;;;;14.20;100.00;100952.38;5015086;28;20291;-79
2023/07/27 00:02:50;;;;;;;;;;;;;;;14.27;100.00;100942.72;5017916;28;19929;-79
2023/07/27 00:05:15;;;;;;;;;;;;;;;14.27;100.00;100944.59;5030206;28;19957;-78
2023/07/27 00:07:40;;;;;;;;;;;;;;;14.26;100.00;100935.63;5014609;28;20360;-79
2023/07/27 00:10:05;;;;;;;;;;;;;;;14.48;100.00;100944.41;5013774;28;20392;-80
2023/07/27 00:12:31;;;;;;;;;;;;;;;14.53;100.00;100947.56;5003285;28;20205;-80
2023/07/27 00:14:56;;;;;;;;;;;;;;;14.59;100.00;100943.41;5006956;28;21043;-81
2023/07/27 00:17:21;;;;;;;;;;;;;;;14.64;100.00;100943.84;5042440;28;20001;-80
2023/07/27 00:19:46;;;;;;;;;;;;;;;14.62;100.00;100952.13;4989076;28;20052;-80
2023/07/27 00:22:12;;;;;;;;;;;;;;;14.65;100.00;100956.38;4991046;28;19940;-80
2023/07/27 00:24:37;;;;;;;;;;;;;;;14.73;100.00;100956.53;5021749;28;20354;-79
2023/07/27 00:27:02;;;;;;;;;;;;;;;14.79;100.00;100952.41;5007160;28;20375;-79
2023/07/27 00:29:27;;;;;;;;;;;;;;;14.84;100.00;100950.97;4990411;28;20063;-79
2023/07/27 00:31:52;;;;;;;;;;;;;;;14.91;100.00;100953.97;5020955;28;19964;-79
2023/07/27 00:34:18;;;;;;;;;;;;;;;14.89;100.00;100952.38;4990507;28;19976;-78
2023/07/27 00:36:43;;;;;;;;;;;;;;;14.98;100.00;100948.81;4990494;28;20015;-79
2023/07/27 00:39:09;;;;;;;;;;;;;;;15.02;100.00;100952.94;5021458;28;20522;-82
2023/07/27 00:41:34;;;;;;;;;;;;;;;15.10;100.00;100949.50;5024939;28;20043;-79
2023/07/27 00:43:59;;;;;;;;;;;;;;;15.18;100.00;100959.56;5012903;28;20369;-80
2023/07/27 00:46:25;;;;;;;;;;;;;;;15.23;100.00;100943.75;4995503;28;19925;-80
2023/07/27 00:48:50;;;;;;;;;;;;;;;15.17;100.00;100947.03;5024671;28;19921;-81
2023/07/27 00:51:15;;;;;;;;;;;;;;;15.21;100.00;100937.66;4991696;28;19925;-82
2023/07/27 00:53:40;;;;;;;;;;;;;;;15.15;100.00;100933.69;5009120;28;19967;-83
2023/07/27 00:56:05;;;;;;;;;;;;;;;15.10;100.00;100931.41;5013709;28;19925;-80
2023/07/27 00:58:31;;;;;;;;;;;;;;;15.04;100.00;100926.59;5025930;28;19929;-80
2023/07/27 01:00:56;;;;;;;;;;;;;;;15.00;100.00;100926.03;5010192;28;19960;-81
2023/07/27 01:03:21;;;;;;;;;;;;;;;15.00;100.00;100926.03;5025154;28;20639;-81
2023/07/27 01:05:47;;;;;;;;;;;;;;;15.03;100.00;100926.75;5024870;28;20323;-81
2023/07/27 01:08:12;;;;;;;;;;;;;;;14.91;100.00;100915.25;5026985;28;20466;-81
2023/07/27 01:10:49;;;;;;;;;;;;;;;14.98;100.00;100909.09;5011632;28;19925;-80
2023/07/27 01:13:18;;;;;;;;;;;;;;;14.98;100.00;100917.22;5025032;28;20425;-80
2023/07/27 01:15:44;;;;;;;;;;;;;;;14.92;100.00;100915.13;5025956;28;19921;-79
2023/07/27 01:18:15;;;;;;;;;;;;;;;14.91;100.00;100913.41;5007932;28;19925;-79
2023/07/27 01:20:46;;;;;;;;;;;;;;;14.86;100.00;100910.28;5025795;28;19964;-79
2023/07/27 01:23:14;;;;;;;;;;;;;;;14.85;100.00;100911.28;5006451;28;19932;-78
2023/07/27 01:25:47;;;;;;;;;;;;;;;14.77;100.00;100917.44;5017644;28;19956;-78
2023/07/27 01:28:12;;;;;;;;;;;;;;;14.72;100.00;100906.19;5012948;28;19921;-78
2023/07/27 01:30:40;;;;;;;;;;;;;;;14.68;100.00;100911.03;5018063;28;19921;-79
2023/07/27 01:33:06;;;;;;;;;;;;;;;14.65;100.00;100895.09;5032363;28;19931;-78
2023/07/27 01:35:34;;;;;;;;;;;;;;;14.62;100.00;100898.06;5016167;28;20378;-78
2023/07/27 01:37:59;;;;;;;;;;;;;;;14.53;100.00;100891.69;4999344;28;19967;-77
2023/07/27 01:40:25;;;;;;;;;;;;;;;14.52;100.00;100892.69;5017991;28;19921;-77
2023/07/27 01:42:50;;;;;;;;;;;;;;;14.46;100.00;100879.75;5034410;28;20445;-79
2023/07/27 01:45:15;;;;;;;;;;;;;;;14.36;100.00;100889.69;5033359;28;20323;-79
2023/07/27 01:47:40;;;;;;;;;;;;;;;14.25;100.00;100886.16;5030987;28;20410;-81
2023/07/27 01:50:06;;;;;;;;;;;;;;;14.23;100.00;100879.19;5029446;28;20582;-78
2023/07/27 01:52:31;;;;;;;;;;;;;;;14.15;100.00;100874.50;5015849;28;19921;-78
2023/07/27 01:54:56;;;;;;;;;;;;;;;14.15;100.00;100870.97;4996015;28;19969;-79
2023/07/27 01:57:21;;;;;;;;;;;;;;;14.15;100.00;100873.66;5013809;28;19994;-78
2023/07/27 01:59:47;;;;;;;;;;;;;;;14.14;100.00;100867.41;4999212;28;20394;-77
2023/07/27 02:02:13;;;;;;;;;;;;;;;14.19;100.00;100870.53;5029512;28;20640;-77
2023/07/27 02:04:38;;;;;;;;;;;;;;;14.18;100.00;100868.81;4996844;28;19921;-77
2023/07/27 02:07:03;;;;;;;;;;;;;;;14.20;100.00;100865.97;4993903;28;19921;-77
2023/07/27 02:09:28;;;;;;;;;;;;;;;14.14;100.00;100866.56;5014629;28;19963;-76
2023/07/27 02:11:54;;;;;;;;;;;;;;;14.13;100.00;100854.06;5010612;28;20047;-77
2023/07/27 02:14:26;;;;;;;;;;;;;;;14.03;100.00;100854.91;4999247;28;20466;-77
2023/07/27 02:16:51;;;;;;;;;;;;;;;14.04;100.00;100844.94;5015315;28;19925;-79
2023/07/27 02:19:16;;;;;;;;;;;;;;;14.03;100.00;100846.78;5015049;28;19921;-78
2023/07/27 02:21:42;;;;;;;;;;;;;;;14.02;100.00;100844.25;4991103;28;19988;-79
2023/07/27 02:24:07;;;;;;;;;;;;;;;13.98;100.00;100834.72;4997385;28;19917;-78
2023/07/27 02:26:33;;;;;;;;;;;;;;;13.95;100.00;100836.72;5012138;28;19944;-78
2023/07/27 02:28:58;;;;;;;;;;;;;;;13.91;100.00;100832.59;5014461;28;19925;-79
2023/07/27 02:31:24;;;;;;;;;;;;;;;13.91;100.00;100827.19;4997079;28;19955;-79
2023/07/27 02:33:49;;;;;;;;;;;;;;;13.90;100.00;100824.66;4997004;28;19969;-79
2023/07/27 02:36:14;;;;;;;;;;;;;;;13.86;100.00;100820.53;5012871;28;19941;-82
2023/07/27 02:38:39;;;;;;;;;;;;;;;13.86;100.00;100818.66;4998919;28;20274;-80
2023/07/27 02:41:04;;;;;;;;;;;;;;;13.84;100.00;100815.25;4997196;28;19922;-79
2023/07/27 02:43:30;;;;;;;;;;;;;;;13.80;100.00;100808.44;4997910;28;19925;-81
2023/07/27 02:45:59;;;;;;;;;;;;;;;13.73;100.00;100808.16;4997367;28;20321;-81
2023/07/27 02:48:24;;;;;;;;;;;;;;;13.70;100.00;100794.94;4998955;28;19921;-78
2023/07/27 02:50:50;;;;;;;;;;;;;;;13.74;100.00;100793.66;4997529;28;19917;-78
2023/07/27 02:53:15;;;;;;;;;;;;;;;13.65;100.00;100794.50;4996197;28;19984;-80
2023/07/27 02:55:40;;;;;;;;;;;;;;;13.67;100.00;100786.28;4995930;28;20255;-77
2023/07/27 02:58:06;;;;;;;;;;;;;;;13.64;100.00;100784.69;4993941;28;20303;-77
2023/07/27 03:00:31;;;;;;;;;;;;;;;13.66;100.00;100782.72;4996165;28;20578;-78
2023/07/27 03:02:56;;;;;;;;;;;;;;;13.64;100.00;100776.59;4995267;28;20439;-78
2023/07/27 03:05:21;;;;;;;;;;;;;;;13.62;100.00;100770.53;5013190;28;20395;-77
2023/07/27 03:07:46;;;;;;;;;;;;;;;13.60;100.00;100770.66;5012998;28;20440;-80
2023/07/27 03:10:12;;;;;;;;;;;;;;;13.58;100.00;100763.72;5029684;28;19929;-79
2023/07/27 03:12:37;;;;;;;;;;;;;;;13.60;100.00;100759.03;5006710;28;20468;-79
2023/07/27 03:15:02;;;;;;;;;;;;;;;13.54;100.00;100757.72;4997860;28;19959;-79
2023/07/27 03:17:28;;;;;;;;;;;;;;;13.50;100.00;100753.63;4996962;28;19964;-77
2023/07/27 03:19:53;;;;;;;;;;;;;;;13.50;100.00;100753.63;4998433;28;19975;-80
2023/07/27 03:22:18;;;;;;;;;;;;;;;13.50;100.00;100753.63;5012982;28;20051;-76
2023/07/27 03:24:43;;;;;;;;;;;;;;;13.53;100.00;100755.19;4998574;28;19940;-79
2023/07/27 03:27:08;;;;;;;;;;;;;;;13.49;100.00;100741.97;5027767;28;19967;-77
2023/07/27 03:29:34;;;;;;;;;;;;;;;13.45;100.00;100732.47;4998062;28;19963;-78
2023/07/27 03:31:59;;;;;;;;;;;;;;;13.47;100.00;100717.00;5010701;28;20011;-77
2023/07/27 03:34:24;;;;;;;;;;;;;;;13.43;100.00;100715.56;4997553;28;19941;-86
2023/07/27 03:36:49;;;;;;;;;;;;;;;13.39;100.00;100706.00;5015358;28;20211;-81
2023/07/27 03:39:14;;;;;;;;;;;;;;;13.39;100.00;100707.88;5000291;28;20265;-80
2023/07/27 03:41:40;;;;;;;;;;;;;;;13.38;100.00;100698.06;5015157;28;20501;-82
2023/07/27 03:44:05;;;;;;;;;;;;;;;13.35;100.00;100691.13;4991890;28;20403;-83
2023/07/27 03:46:30;;;;;;;;;;;;;;;13.30;100.00;100694.22;5015083;28;19923;-82
2023/07/27 03:48:55;;;;;;;;;;;;;;;13.25;100.00;100683.00;5014697;28;19928;-81
2023/07/27 03:51:21;;;;;;;;;;;;;;;13.30;100.00;100682.63;4996909;28;19999;-81
2023/07/27 03:53:46;;;;;;;;;;;;;;;13.33;100.00;100674.25;5013363;28;19928;-81
2023/07/27 03:56:11;;;;;;;;;;;;;;;13.37;100.00;100669.41;4996756;28;19925;-86
2023/07/27 03:58:36;;;;;;;;;;;;;;;13.37;100.00;100658.63;4998053;28;19976;-84
2023/07/27 04:01:01;;;;;;;;;;;;;;;13.34;100.00;100648.97;5012809;28;20007;-79
2023/07/27 04:03:27;;;;;;;;;;;;;;;13.33;100.00;100634.63;5013059;28;20051;-77
2023/07/27 04:05:52;;;;;;;;;;;;;;;13.32;100.00;100624.00;5026943;28;19948;-76
2023/07/27 04:08:17;;;;;;;;;;;;;;;13.30;100.00;100617.91;5012586;28;19952;-77
2023/07/27 04:10:43;;;;;;;;;;;;;;;13.26;100.00;100617.31;5013092;28;20063;-80
2023/07/27 04:13:10;;;;;;;;;;;;;;;13.30;100.00;100618.75;4995956;28;19921;-77
2023/07/27 04:15:35;;;;;;;;;;;;;;;13.33;100.00;100612.22;4991918;28;20335;-78
2023/07/27 04:18:00;;;;;;;;;;;;;;;13.34;100.00;100595.06;4990863;28;19921;-77
2023/07/27 04:20:25;;;;;;;;;;;;;;;13.30;100.00;100605.25;5012956;28;19928;-75
2023/07/27 04:22:51;;;;;;;;;;;;;;;13.31;100.00;100593.47;5017516;28;19974;-75
2023/07/27 04:25:16;;;;;;;;;;;;;;;13.32;100.00;100578.16;5000833;28;20023;-76
2023/07/27 04:27:41;;;;;;;;;;;;;;;13.32;100.00;100573.63;5013848;28;19925;-75
2023/07/27 04:30:06;;;;;;;;;;;;;;;13.39;100.00;100568.50;4997990;28;19928;-75
2023/07/27 04:32:32;;;;;;;;;;;;;;;13.37;100.00;100567.81;5028226;28;19951;-75
2023/07/27 04:34:57;;;;;;;;;;;;;;;13.35;100.00;100564.41;5016875;28;20418;-74
2023/07/27 04:37:22;;;;;;;;;;;;;;;13.37;100.00;100556.16;5032982;28;19931;-77
2023/07/27 04:39:48;;;;;;;;;;;;;;;13.37;100.00;100553.47;5014650;28;19933;-75
2023/07/27 04:42:13;;;;;;;;;;;;;;;13.39;100.00;100541.53;5029944;28;19925;-77
2023/07/27 04:44:38;;;;;;;;;;;;;;;13.45;100.00;100535.59;4999105;28;20024;-74
2023/07/27 04:47:03;;;;;;;;;;;;;;;13.45;100.00;100535.59;5000476;28;19929;-73
2023/07/27 04:49:29;;;;;;;;;;;;;;;13.43;100.00;100531.34;5015299;28;19964;-76
2023/07/27 04:51:54;;;;;;;;;;;;;;;13.45;100.00;100526.66;5013043;28;19947;-76
2023/07/27 04:54:19;;;;;;;;;;;;;;;13.44;100.00;100514.16;5014451;28;19977;-75
2023/07/27 04:56:45;;;;;;;;;;;;;;;13.43;100.00;100512.47;5008334;28;19921;-75
2023/07/27 04:59:10;;;;;;;;;;;;;;;13.43;100.00;100509.78;5013948;28;19929;-76
2023/07/27 05:01:35;;;;;;;;;;;;;;;13.44;100.00;100492.59;4996956;28;19972;-75
2023/07/27 05:04:00;;;;;;;;;;;;;;;13.45;100.00;100497.00;5016329;28;20008;-75
2023/07/27 05:06:26;;;;;;;;;;;;;;;13.47;100.00;100489.59;5012028;28;19952;-75
2023/07/27 05:08:51;;;;;;;;;;;;;;;13.46;100.00;100486.06;5000024;28;20364;-76
2023/07/27 05:11:16;;;;;;;;;;;;;;;13.43;100.00;100480.94;4997900;28;20430;-75
2023/07/27 05:13:41;;;;;;;;;;;;;;;13.50;100.00;100487.47;5015840;28;20435;-78
2023/07/27 05:16:07;;;;;;;;;;;;;;;13.49;100.00;100469.56;4992255;28;20371;-79
2023/07/27 05:18:32;;;;;;;;;;;;;;;13.48;100.00;100477.84;4995091;28;20681;-75
2023/07/27 05:20:58;;;;;;;;;;;;;;;13.47;100.00;100468.88;5026667;28;19929;-76
2023/07/27 05:23:23;;;;;;;;;;;;;;;13.54;100.00;100470.97;4995162;28;19925;-78
2023/07/27 05:25:48;;;;;;;;;;;;;;;13.54;100.00;100465.59;5023339;28;19960;-76
2023/07/27 05:28:14;;;;;;;;;;;;;;;13.57;100.00;100460.75;5005881;28;19917;-76
2023/07/27 05:30:39;;;;;;;;;;;;;;;13.57;100.00;100459.91;4987041;28;19952;-74
2023/07/27 05:33:04;;;;;;;;;;;;;;;13.58;100.00;100451.66;5021057;28;20010;-76
2023/07/27 05:35:30;;;;;;;;;;;;;;;13.60;100.00;100438.03;5003608;28;19944;-75
2023/07/27 05:37:55;;;;;;;;;;;;;;;13.62;100.00;100449.53;5006820;28;20475;-75
2023/07/27 05:40:20;;;;;;;;;;;;;;;13.62;100.00;100446.81;5005852;28;19928;-74
2023/07/27 05:42:45;;;;;;;;;;;;;;;13.61;100.00;100440.56;4987954;28;20003;-72
2023/07/27 05:45:10;;;;;;;;;;;;;;;13.68;100.00;100435.41;5004540;28;20251;-76
2023/07/27 05:47:36;;;;;;;;;;;;;;;13.67;100.00;100432.88;5019126;28;19928;-72
2023/07/27 05:50:02;;;;;;;;;;;;;;;13.71;100.00;100434.28;5008060;28;19925;-74
2023/07/27 05:52:27;;;;;;;;;;;;;;;13.74;100.00;100426.72;5003910;28;19925;-71
2023/07/27 05:54:52;;;;;;;;;;;;;;;13.75;100.00;100422.19;4994372;28;19975;-77
2023/07/27 05:57:18;;;;;;;;;;;;;;;13.68;100.00;100405.75;5004703;28;19968;-76
2023/07/27 05:59:43;;;;;;;;;;;;;;;13.75;100.00;100409.53;5003985;28;20252;-74
2023/07/27 06:02:08;;;;;;;;;;;;;;;13.83;100.00;100403.38;5018077;28;20427;-73
2023/07/27 06:04:33;;;;;;;;;;;;;;;13.86;100.00;100399.56;5001334;28;19925;-73
2023/07/27 06:06:58;;;;;;;;;;;;;;;13.92;100.00;100404.31;5010438;28;19963;-75
2023/07/27 06:09:24;;;;;;;;;;;;;;;13.89;100.00;100400.09;5012623;28;19970;-74
2023/07/27 06:11:51;;;;;;;;;;;;;;;13.92;100.00;100391.69;5009080;28;19927;-75
2023/07/27 06:14:16;;;;;;;;;;;;;;;13.96;100.00;100394.91;5010821;28;19928;-72
2023/07/27 06:16:41;;;;;;;;;;;;;;;13.97;100.00;100385.00;4993689;28;19925;-73
2023/07/27 06:19:06;;;;;;;;;;;;;;;14.01;100.00;100386.38;4998255;28;19925;-71
2023/07/27 06:21:32;;;;;;;;;;;;;;;14.02;100.00;100377.28;5015608;28;19925;-74
2023/07/27 06:23:57;;;;;;;;;;;;;;;14.07;100.00;100369.56;5012201;28;19925;-74
2023/07/27 06:26:22;;;;;;;;;;;;;;;14.06;100.00;100374.13;4999275;28;20007;-73
2023/07/27 06:28:48;;;;;;;;;;;;;;;14.08;100.00;100371.25;4998967;28;19925;-72
2023/07/27 06:31:13;;;;;;;;;;;;;;;14.12;100.00;100367.25;5009935;28;20411;-72
2023/07/27 06:33:38;;;;;;;;;;;;;;;14.15;100.00;100366.94;4988221;28;20287;-78
2023/07/27 06:36:05;;;;;;;;;;;;;;;14.16;100.00;100351.59;5006330;28;19928;-72
2023/07/27 06:38:31;;;;;;;;;;;;;;;14.24;100.00;100362.47;4993107;28;19925;-72
2023/07/27 06:40:56;;;;;;;;;;;;;;;14.29;100.00;100360.16;4987242;28;20291;-73
2023/07/27 06:43:21;;;;;;;;;;;;;;;14.28;100.00;100363.00;5003085;28;20303;-73
2023/07/27 06:45:47;;;;;;;;;;;;;;;14.33;100.00;100350.72;5009434;28;20283;-74
2023/07/27 06:48:12;;;;;;;;;;;;;;;14.36;100.00;100346.84;5005035;28;20028;-72
2023/07/27 06:50:37;;;;;;;;;;;;;;;14.43;100.00;100347.94;5004119;28;19929;-71
2023/07/27 06:53:02;;;;;;;;;;;;;;;14.39;100.00;100350.13;4993267;28;19921;-73
2023/07/27 06:55:27;;;;;;;;;;;;;;;14.42;100.00;100340.84;5020674;28;20013;-74
2023/07/27 06:57:55;;;;;;;;;;;;;;;14.52;100.00;100338.03;5001394;28;20312;-74
2023/07/27 07:00:20;;;;;;;;;;;;;;;14.59;100.00;100336.41;4990888;28;19937;-73
2023/07/27 07:02:46;;;;;;;;;;;;;;;14.60;100.00;100338.09;4983765;28;19921;-75
2023/07/27 07:05:11;;;;;;;;;;;;;;;14.67;100.00;100339.16;4987071;28;19928;-75
2023/07/27 07:07:37;;;;;;;;;;;;;;;14.67;100.00;100332.91;5003184;28;19921;-75
2023/07/27 07:10:03;;;;;;;;;;;;;;;14.69;100.00;100337.19;5002056;28;19925;-76
2023/07/27 07:12:28;;;;;;;;;;;;;;;14.72;100.00;100335.16;5004838;28;19960;-74
2023/07/27 07:14:53;;;;;;;;;;;;;;;14.77;100.00;100330.13;5004707;28;19924;-77
2023/07/27 07:17:19;;;;;;;;;;;;;;;14.84;100.00;100326.63;5015885;28;19964;-78
2023/07/27 07:19:46;;;;;;;;;;;;;;;14.83;100.00;100322.22;5003888;28;20394;-76
2023/07/27 07:22:11;;;;;;;;;;;;;;;14.88;100.00;100326.31;4984935;28;20982;-76
2023/07/27 07:24:36;;;;;;;;;;;;;;;14.91;100.00;100326.84;5006810;28;19921;-76
2023/07/27 07:27:01;;;;;;;;;;;;;;;14.90;100.00;100324.28;4991672;28;19931;-76
2023/07/27 07:29:27;;;;;;;;;;;;;;;14.98;100.00;100322.47;5004532;28;19925;-78
2023/07/27 07:31:52;;;;;;;;;;;;;;;14.98;100.00;100314.34;5003796;28;19964;-73
2023/07/27 07:34:17;;;;;;;;;;;;;;;15.04;100.00;100317.44;4998021;28;19960;-75
2023/07/27 07:36:43;;;;;;;;;;;;;;;15.10;100.00;100309.50;5004705;28;19951;-75
2023/07/27 07:39:09;;;;;;;;;;;;;;;15.13;100.00;100302.94;4987242;28;20219;-74
2023/07/27 07:41:34;;;;;;;;;;;;;;;15.08;100.00;100289.94;4986646;28;20651;-75
2023/07/27 07:43:59;;;;;;;;;;;;;;;15.17;100.00;100301.63;5005176;28;20434;-74
2023/07/27 07:46:25;;;;;;;;;;;;;;;15.28;100.00;100289.66;5001310;28;19925;-74
2023/07/27 07:48:50;;;;;;;;;;;;;;;15.32;100.00;100293.72;5001883;28;19925;-75
2023/07/27 07:51:15;;;;;;;;;;;;;;;15.37;100.00;100288.66;5019648;28;19928;-74
2023/07/27 07:53:41;;;;;;;;;;;;;;;15.44;100.00;100286.16;4989581;28;19921;-73
2023/07/27 07:56:13;;;;;;;;;;;;;;;15.52;100.00;100283.44;5006451;28;19925;-74
2023/07/27 07:58:38;;;;;;;;;;;;;;;15.59;100.00;100270.13;5018863;28;19925;-74
2023/07/27 08:01:03;;;;;;;;;;;;;;;15.53;100.00;100103.88;5000608;28;19925;-76
2023/07/27 08:03:29;;;;;;;;;;;;;;;15.59;100.00;100156.50;5002589;28;20367;-75
2023/07/27 08:05:54;;;;;;;;;;;;;;;15.62;100.00;100222.94;5019561;28;20367;-76
2023/07/27 08:08:19;;;;;;;;;;;;;;;15.66;100.00;100225.13;5018572;28;20312;-79
2023/07/27 08:10:44;;;;;;;;;;;;;;;15.67;100.00;100231.41;5004177;28;20294;-74
2023/07/27 08:13:09;;;;;;;;;;;;;;;15.70;100.00;100231.91;4986743;28;20000;-75
2023/07/27 08:15:35;;;;;;;;;;;;;;;15.73;100.00;100228.03;5003763;28;20327;-77
2023/07/27 08:18:01;;;;;;;;;;;;;;;15.75;100.00;100218.72;4985428;28;20344;-74
2023/07/27 08:20:26;;;;;;;;;;;;;;;15.75;100.00;100205.19;5025979;28;19921;-81
2023/07/27 08:22:51;;;;;;;;;;;;;;;15.92;100.00;100197.09;5008000;28;19964;-75
2023/07/27 08:25:17;;;;;;;;;;;;;;;15.97;100.00;100202.00;5006247;28;19926;-75
2023/07/27 08:27:42;;;;;;;;;;;;;;;15.90;100.00;100207.22;4989539;28;19921;-77
2023/07/27 08:30:07;;;;;;;;;;;;;;;16.04;100.00;100219.25;5024826;28;19921;-79
2023/07/27 08:32:33;;;;;;;;;;;;;;;16.11;100.00;100205.88;5027817;28;20007;-72
2023/07/27 08:34:58;;;;;;;;;;;;;;;16.21;100.00;100220.06;5009801;28;19937;-75
2023/07/27 08:37:23;;;;;;;;;;;;;;;16.24;100.00;100227.84;5008019;28;20091;-76
2023/07/27 08:39:48;;;;;;;;;;;;;;;16.33;100.00;100228.69;5011178;28;20027;-76
2023/07/27 08:42:17;;;;;;;;;;;;;;;16.41;100.00;100230.56;5008792;28;19921;-76
2023/07/27 08:44:43;;;;;;;;;;;;;;;16.51;100.00;100233.06;5012555;28;19917;-74
2023/07/27 08:47:09;;;;;;;;;;;;;;;16.57;100.00;100245.91;5009329;28;20423;-74
2023/07/27 08:49:34;;;;;;;;;;;;;;;16.62;100.00;100247.09;5009908;28;19921;-76
2023/07/27 08:51:59;;;;;;;;;;;;;;;16.55;100.00;100256.91;5009165;28;19957;-73
2023/07/27 08:54:24;;;;;;;;;;;;;;;16.58;100.00;100266.56;5012921;28;19961;-77
2023/07/27 08:56:49;;;;;;;;;;;;;;;16.53;100.00;100269.78;5023834;28;21423;-77
2023/07/27 08:59:15;;;;;;;;;;;;;;;16.46;100.00;100264.22;4994584;28;20012;-75
2023/07/27 09:01:41;;;;;;;;;;;;;;;16.58;100.00;100271.97;4996319;28;19921;-73
2023/07/27 09:04:06;;;;;;;;;;;;;;;16.64;100.00;100274.00;5014056;28;20295;-74
2023/07/27 09:06:49;;;;;;;;;;;;;;;16.92;100.00;100276.28;5011669;28;19928;-74
2023/07/27 09:09:25;;;;;;;;;;;;;;;17.00;100.00;100287.16;4997666;28;19927;-76
2023/07/27 09:11:50;;;;;;;;;;;;;;;16.94;100.00;100288.66;5016494;28;19959;-73
2023/07/27 09:14:19;;;;;;;;;;;;;;;16.79;100.00;100293.97;5009521;28;19920;-75
2023/07/27 09:16:45;;;;;;;;;;;;;;;16.79;100.00;100295.81;5005714;28;20011;-74
2023/07/27 09:19:10;;;;;;;;;;;;;;;16.70;100.00;100302.28;5006030;28;19979;-76
2023/07/27 09:21:44;;;;;;;;;;;;;;;16.83;100.00;100299.88;4994169;28;19975;-74
2023/07/27 09:24:10;;;;;;;;;;;;;;;16.77;100.00;100303.28;5009971;28;19933;-77
2023/07/27 09:26:37;;;;;;;;;;;;;;;16.83;100.00;100305.31;5006785;28;19979;-81
2023/07/27 09:29:03;;;;;;;;;;;;;;;16.97;100.00;100300.19;5006018;28;20339;-76
2023/07/27 09:31:36;;;;;;;;;;;;;;;17.03;100.00;100297.66;5005588;28;19925;-75
2023/07/27 09:34:03;;;;;;;;;;;;;;;17.11;100.00;100306.75;5009931;28;20009;-82
2023/07/27 09:36:29;;;;;;;;;;;;;;;17.09;100.00;100307.78;5005610;28;19929;-82
2023/07/27 09:38:54;;;;;;;;;;;;;;;17.08;100.00;100316.94;4992338;28;19929;-80
2023/07/27 09:41:19;;;;;;;;;;;;;;;17.16;100.00;100315.22;5006816;28;19932;-76
2023/07/27 09:43:44;;;;;;;;;;;;;;;17.16;100.00;100320.63;5008869;28;20274;-74
2023/07/27 09:46:10;;;;;;;;;;;;;;;17.05;100.00;100317.31;5006387;28;20335;-78
2023/07/27 09:48:35;;;;;;;;;;;;;;;16.89;100.00;100320.88;5005505;28;20546;-73
2023/07/27 09:51:00;;;;;;;;;;;;;;;17.03;100.00;100326.63;5005769;28;19960;-74
2023/07/27 09:53:27;;;;;;;;;;;;;;;17.10;100.00;100316.78;5005092;28;19978;-74
2023/07/27 09:55:52;;;;;;;;;;;;;;;17.22;100.00;100318.06;5004271;28;20058;-74
2023/07/27 09:58:18;;;;;;;;;;;;;;;17.35;100.00;100320.22;4988714;28;21752;-78
2023/07/27 10:00:43;;;;;;;;;;;;;;;17.41;100.00;100320.53;5007861;28;20279;-75
2023/07/27 10:03:09;;;;;;;;;;;;;;;17.59;100.00;100334.69;5006456;28;20137;-76
2023/07/27 10:05:43;;;;;;;;;;;;;;;17.46;100.00;100337.13;5009419;28;20329;-75
2023/07/27 10:08:08;;;;;;;;;;;;;;;17.33;100.00;100345.84;5005449;28;19932;-74
2023/07/27 10:10:34;;;;;;;;;;;;;;;17.09;100.00;100348.44;5007678;28;20244;-74
2023/07/27 10:13:12;;;;;;;;;;;;;;;17.09;100.00;100353.88;5004473;28;20115;-75
2023/07/27 10:15:39;;;;;;;;;;;;;;;17.20;100.00;100343.69;5021868;28;19921;-73
2023/07/27 10:18:05;;;;;;;;;;;;;;;17.16;100.00;100343.19;5006922;28;19925;-72
2023/07/27 10:20:31;;;;;;;;;;;;;;;17.21;100.00;100345.38;5004998;28;19936;-76
2023/07/27 10:23:18;;;;;;;;;;;;;;;17.23;100.00;100354.19;5006401;28;19953;-75
2023/07/27 10:25:53;;;;;;;;;;;;;;;17.32;100.00;100361.28;5007930;28;20384;-77
2023/07/27 10:28:33;;;;;;;;;;;;;;;17.21;100.00;100343.53;5021116;28;19995;-79
2023/07/27 10:31:14;;;;;;;;;;;;;;;17.42;100.00;100376.50;5022919;28;21398;-73
2023/07/27 10:33:46;;;;;;;;;;;;;;;17.58;100.00;100379.16;5008885;28;19924;-73
2023/07/27 10:36:12;;;;;;;;;;;;;;;17.61;100.00;100381.47;5003723;28;20052;-76
2023/07/27 10:38:37;;;;;;;;;;;;;;;17.59;100.00;100378.13;5023319;28;19925;-75
2023/07/27 10:41:12;;;;;;;;;;;;;;;17.43;100.00;100367.31;5008087;28;19925;-75
2023/07/27 10:43:37;;;;;;;;;;;;;;;17.60;100.00;100374.41;5004668;28;19920;-76
2023/07/27 10:46:03;;;;;;;;;;;;;;;17.82;100.00;100371.91;5008111;28;19983;-76
2023/07/27 10:48:28;;;;;;;;;;;;;;;17.92;100.00;100371.66;5002482;28;19931;-79
2023/07/27 10:50:53;;;;;;;;;;;;;;;17.97;100.00;100371.97;4991228;28;19920;-77
2023/07/27 10:53:18;;;;;;;;;;;;;;;17.89;100.00;100372.03;5004132;28;19931;-73
2023/07/27 10:55:43;;;;;;;;;;;;;;;17.87;100.00;100377.63;5007390;28;20008;-73
2023/07/27 10:58:09;;;;;;;;;;;;;;;17.79;100.00;100386.66;5021820;28;20024;-75
2023/07/27 11:00:34;;;;;;;;;;;;;;;17.69;100.00;100380.63;5005361;28;19921;-78
2023/07/27 11:03:00;;;;;;;;;;;;;;;17.68;100.00;100382.47;4987329;28;20348;-76
2023/07/27 11:05:25;;;;;;;;;;;;;;;17.71;100.00;100385.84;5021879;28;19960;-75
2023/07/27 11:07:50;;;;;;;;;;;;;;;17.75;100.00;100390.75;5005834;28;20387;-76
2023/07/27 11:10:16;;;;;;;;;;;;;;;17.77;100.00;100380.56;5019491;28;20434;-76
2023/07/27 11:12:47;;;;;;;;;;;;;;;17.74;100.00;100385.50;5006356;28;20035;-76
2023/07/27 11:15:16;;;;;;;;;;;;;;;17.86;100.00;100383.22;5002401;28;19921;-76
2023/07/27 11:17:41;;;;;;;;;;;;;;;17.68;100.00;100379.75;5004260;28;20070;-77
2023/07/27 11:20:08;;;;;;;;;;;;;;;17.91;100.00;100383.53;5005624;28;20307;-75
2023/07/27 11:22:34;;;;;;;;;;;;;;;17.93;100.00;100385.03;5023922;28;20039;-79
2023/07/27 11:24:59;;;;;;;;;;;;;;;17.94;100.00;100372.34;4988213;28;19928;-76
2023/07/27 11:27:24;;;;;;;;;;;;;;;18.20;100.00;100374.72;5019190;28;19973;-77
2023/07/27 11:29:51;;;;;;;;;;;;;;;18.28;100.00;100368.38;5003091;28;19921;-76
2023/07/27 11:32:16;;;;;;;;;;;;;;;18.29;100.00;100375.50;5006109;28;20351;-75
2023/07/27 11:34:41;;;;;;;;;;;;;;;18.09;100.00;100373.28;5003484;28;20071;-78
2023/07/27 11:37:06;;;;;;;;;;;;;;;18.21;100.00;100375.56;4986010;28;19958;-78
2023/07/27 11:39:31;;;;;;;;;;;;;;;18.07;100.00;100375.31;5018461;28;19982;-75
2023/07/27 11:41:57;;;;;;;;;;;;;;;18.25;100.00;100376.91;5021377;28;20012;-75
2023/07/27 11:44:23;;;;;;;;;;;;;;;18.24;100.00;100377.94;5006584;28;20648;-78
2023/07/27 11:46:50;;;;;;;;;;;;;;;18.07;100.00;100382.63;5019615;28;19921;-78
2023/07/27 11:49:16;;;;;;;;;;;;;;;18.10;100.00;100388.53;5002534;28;19925;-78
2023/07/27 11:51:41;;;;;;;;;;;;;;;18.21;100.00;100389.16;5003090;28;19994;-74
2023/07/27 11:54:07;;;;;;;;;;;;;;;18.17;100.00;100387.81;5001202;28;21596;-77
2023/07/27 11:56:33;;;;;;;;;;;;;;;18.24;100.00;100388.81;5003412;28;19931;-73
2023/07/27 11:58:58;;;;;;;;;;;;;;;18.25;100.00;100388.59;5003926;28;19929;-72
2023/07/27 12:01:23;;;;;;;;;;;;;;;18.12;100.00;100382.94;5002066;28;19928;-74
2023/07/27 12:03:48;;;;;;;;;;;;;;;18.21;100.00;100390.00;5018996;28;19921;-76
2023/07/27 12:06:14;;;;;;;;;;;;;;;18.10;100.00;100385.81;5002481;28;19928;-75
2023/07/27 12:08:39;;;;;;;;;;;;;;;18.21;100.00;100392.72;5004524;28;19990;-77
2023/07/27 12:11:04;;;;;;;;;;;;;;;18.16;100.00;100392.41;5003346;28;20196;-77
2023/07/27 12:13:29;;;;;;;;;;;;;;;18.06;100.00;100391.81;5006322;28;20305;-76
2023/07/27 12:16:01;;;;;;;;;;;;;;;18.09;100.00;100392.28;4991714;28;20304;-77
2023/07/27 12:18:27;;;;;;;;;;;;;;;18.00;100.00;100393.38;4988006;28;20050;-78
2023/07/27 12:20:53;;;;;;;;;;;;;;;17.98;100.00;100390.81;5001718;28;19964;-77